createdAt,value
2022-11-05T00:00:37.493Z,15.77
2022-11-05T00:02:18.451Z,18.17
2022-11-05T00:03:59.535Z,20.53
2022-11-05T00:05:40.141Z,18.07
2022-11-05T00:07:53.073Z,16.77
2022-11-05T00:09:30.626Z,23.07
2022-11-05T00:10:52.653Z,22.50
2022-11-05T00:12:33.892Z,18.13
2022-11-05T00:14:14.572Z,17.60
2022-11-05T00:15:55.061Z,18.87
2022-11-05T00:17:17.072Z,16.40
2022-11-05T00:18:39.433Z,18.90
2022-11-05T00:20:01.892Z,19.20
2022-11-05T00:21:42.653Z,20.43
2022-11-05T00:23:24.390Z,18.30
2022-11-05T00:25:04.909Z,13.60
2022-11-05T00:26:26.902Z,18.27
2022-11-05T00:27:50.980Z,15.60
2022-11-05T00:29:13.020Z,16.60
2022-11-05T00:30:35.024Z,18.47
2022-11-05T00:31:57.027Z,18.33
2022-11-05T00:33:19.159Z,13.47
2022-11-05T00:34:41.155Z,16.40
2022-11-05T00:36:04.255Z,19.77
2022-11-05T00:37:29.605Z,18.73
2022-11-05T00:38:51.688Z,17.00
2022-11-05T00:40:15.013Z,19.43
2022-11-05T00:41:36.993Z,18.13
2022-11-05T00:43:17.546Z,20.73
2022-11-05T00:44:59.782Z,12.50
2022-11-05T00:46:21.791Z,17.23
2022-11-05T00:48:02.406Z,14.30
2022-11-05T00:49:30.330Z,17.20
2022-11-05T00:50:52.383Z,16.77
2022-11-05T00:52:32.904Z,19.37
2022-11-05T00:53:54.916Z,14.70
2022-11-05T00:55:17.041Z,16.20
2022-11-05T00:56:39.001Z,15.00
2022-11-05T00:58:02.980Z,21.37
2022-11-05T00:59:25.005Z,20.07
2022-11-05T01:00:52.497Z,16.83
2022-11-05T01:02:14.587Z,16.17
2022-11-05T01:03:38.284Z,18.80
2022-11-05T01:05:00.323Z,12.03
2022-11-05T01:06:22.385Z,15.60
2022-11-05T01:07:44.534Z,17.03
2022-11-05T01:09:06.543Z,20.23
2022-11-05T01:10:29.578Z,11.93
2022-11-05T01:11:51.589Z,18.63
2022-11-05T01:13:16.790Z,15.13
2022-11-05T01:14:38.872Z,16.90
2022-11-05T01:16:11.449Z,12.23
2022-11-05T01:17:33.479Z,14.23
2022-11-05T01:18:55.517Z,14.40
2022-11-05T01:20:17.672Z,13.57
2022-11-05T01:21:39.680Z,11.53
2022-11-05T01:23:01.792Z,19.03
2022-11-05T01:24:23.784Z,21.60
2022-11-05T01:25:45.852Z,22.53
2022-11-05T01:27:07.854Z,16.90
2022-11-05T01:28:30.092Z,12.90
2022-11-05T01:29:52.168Z,13.73
2022-11-05T01:31:14.148Z,17.73
2022-11-05T01:32:36.923Z,13.00
2022-11-05T01:34:01.676Z,14.20
2022-11-05T01:35:23.749Z,18.17
2022-11-05T01:36:45.768Z,17.10
2022-11-05T01:38:07.768Z,10.90
2022-11-05T01:39:29.890Z,12.73
2022-11-05T01:40:51.943Z,11.87
2022-11-05T01:42:22.875Z,16.70
2022-11-05T01:43:47.318Z,19.07
2022-11-05T01:45:12.749Z,18.23
2022-11-05T01:46:40.306Z,15.50
2022-11-05T01:48:11.366Z,13.53
2022-11-05T01:49:34.544Z,17.13
2022-11-05T01:51:06.955Z,11.23
2022-11-05T01:52:31.766Z,23.07
2022-11-05T01:54:21.914Z,16.83
2022-11-05T01:56:12.218Z,24.03
2022-11-05T01:57:34.475Z,11.57
2022-11-05T01:59:01.942Z,14.83
2022-11-05T02:00:23.965Z,18.60
2022-11-05T02:01:46.611Z,19.70
2022-11-05T02:03:09.815Z,15.70
2022-11-05T02:04:41.438Z,16.30
2022-11-05T02:06:04.675Z,15.90
2022-11-05T02:07:28.333Z,11.77
2022-11-05T02:08:58.704Z,14.27
2022-11-05T02:10:22.193Z,17.07
2022-11-05T02:11:44.168Z,14.60
2022-11-05T02:13:06.211Z,18.10
2022-11-05T02:14:28.264Z,14.53
2022-11-05T02:16:14.157Z,15.60
2022-11-05T02:17:48.094Z,15.37
2022-11-05T02:19:28.613Z,23.20
2022-11-05T02:21:27.579Z,16.37
2022-11-05T02:23:24.188Z,12.90
2022-11-05T02:25:02.375Z,19.33
2022-11-05T02:26:53.107Z,17.23
2022-11-05T02:28:49.726Z,17.07
2022-11-05T02:30:23.421Z,11.03
2022-11-05T02:31:57.357Z,16.93
2022-11-05T02:33:42.723Z,20.00
2022-11-05T02:35:26.840Z,15.50
2022-11-05T02:36:58.567Z,14.60
2022-11-05T02:38:41.958Z,16.40
2022-11-05T02:40:28.957Z,14.10
2022-11-05T02:42:12.665Z,11.27
2022-11-05T02:43:34.634Z,15.63
2022-11-05T02:45:33.945Z,15.97
2022-11-05T02:47:05.139Z,16.40
2022-11-05T02:48:57.067Z,21.60
2022-11-05T02:50:39.205Z,15.03
2022-11-05T02:52:21.163Z,18.30
2022-11-05T02:54:01.496Z,16.57
2022-11-05T02:55:37.035Z,14.57
2022-11-05T02:57:00.877Z,9.70
2022-11-05T02:58:22.953Z,17.10
2022-11-05T02:59:45.061Z,14.27
2022-11-05T03:01:09.347Z,12.50
2022-11-05T03:02:32.022Z,18.77
2022-11-05T03:04:00.151Z,17.23
2022-11-05T03:05:30.523Z,11.33
2022-11-05T03:07:22.260Z,21.40
2022-11-05T03:08:53.376Z,20.07
2022-11-05T03:10:59.573Z,14.60
2022-11-05T03:12:32.985Z,10.03
2022-11-05T03:14:37.330Z,14.30
2022-11-05T03:16:30.070Z,14.47
2022-11-05T03:18:14.812Z,12.07
2022-11-05T03:19:50.111Z,16.97
2022-11-05T03:21:17.838Z,21.13
2022-11-05T03:22:47.588Z,23.53
2022-11-05T03:24:18.690Z,19.87
2022-11-05T03:25:55.427Z,12.70
2022-11-05T03:27:23.558Z,18.13
2022-11-05T03:28:51.775Z,15.73
2022-11-05T03:30:16.541Z,13.50
2022-11-05T03:31:40.943Z,11.50
2022-11-05T03:33:08.974Z,16.90
2022-11-05T03:34:38.717Z,28.27
2022-11-05T03:36:13.889Z,12.23
2022-11-05T03:37:39.623Z,12.30
2022-11-05T03:39:05.683Z,24.87
2022-11-05T03:40:32.026Z,14.00
2022-11-05T03:41:56.539Z,15.47
2022-11-05T03:43:22.080Z,16.03
2022-11-05T03:44:52.470Z,21.07
2022-11-05T03:46:40.964Z,10.40
2022-11-05T03:48:05.510Z,12.53
2022-11-05T03:49:35.458Z,10.73
2022-11-05T03:51:12.798Z,9.70
2022-11-05T03:52:59.121Z,18.63
2022-11-05T03:54:22.029Z,15.47
2022-11-05T03:55:53.457Z,14.83
2022-11-05T03:57:26.572Z,13.60
2022-11-05T03:58:49.106Z,11.20
2022-11-05T04:00:11.773Z,20.57
2022-11-05T04:01:36.382Z,12.70
2022-11-05T04:02:58.587Z,13.43
2022-11-05T04:04:20.710Z,13.83
2022-11-05T04:05:43.003Z,16.57
2022-11-05T04:07:23.564Z,8.87
2022-11-05T04:09:04.344Z,13.53
2022-11-05T04:10:45.100Z,14.80
2022-11-05T04:12:27.003Z,11.30
2022-11-05T04:13:49.045Z,10.97
2022-11-05T04:15:11.076Z,15.60
2022-11-05T04:16:51.570Z,10.87
2022-11-05T04:18:13.608Z,9.17
2022-11-05T04:19:55.751Z,20.07
2022-11-05T04:21:36.466Z,8.73
2022-11-05T04:23:19.041Z,18.50
2022-11-05T04:24:41.061Z,13.70
2022-11-05T04:26:03.075Z,9.73
2022-11-05T04:27:25.107Z,13.47
2022-11-05T04:29:07.976Z,22.43
2022-11-05T04:30:30.181Z,15.50
2022-11-05T04:31:52.639Z,12.80
2022-11-05T04:33:16.677Z,13.20
2022-11-05T04:34:38.731Z,18.33
2022-11-05T04:36:00.778Z,17.33
2022-11-05T04:37:22.813Z,13.27
2022-11-05T04:38:44.870Z,15.63
2022-11-05T04:40:07.587Z,13.83
2022-11-05T04:41:29.689Z,11.43
2022-11-05T04:42:54.136Z,9.37
2022-11-05T04:44:16.976Z,20.70
2022-11-05T04:45:39.030Z,14.77
2022-11-05T04:47:01.229Z,12.97
2022-11-05T04:48:23.287Z,8.83
2022-11-05T04:49:45.296Z,15.73
2022-11-05T04:51:07.321Z,18.07
2022-11-05T04:52:29.340Z,7.47
2022-11-05T04:53:51.454Z,13.03
2022-11-05T04:55:13.826Z,15.67
2022-11-05T04:56:35.918Z,16.00
2022-11-05T04:57:57.995Z,9.63
2022-11-05T04:59:20.086Z,17.00
2022-11-05T05:00:42.338Z,15.97
2022-11-05T05:02:04.615Z,15.90
2022-11-05T05:03:26.661Z,18.70
2022-11-05T05:04:48.729Z,16.27
2022-11-05T05:06:11.068Z,11.83
2022-11-05T05:07:34.258Z,13.50
2022-11-05T05:08:56.300Z,11.17
2022-11-05T05:10:18.457Z,25.73
2022-11-05T05:11:41.101Z,14.00
2022-11-05T05:13:03.144Z,15.90
2022-11-05T05:14:25.492Z,12.20
2022-11-05T05:15:47.555Z,14.40
2022-11-05T05:17:10.087Z,17.97
2022-11-05T05:18:32.169Z,12.57
2022-11-05T05:20:12.956Z,28.80
2022-11-05T05:21:41.490Z,15.10
2022-11-05T05:23:04.088Z,17.50
2022-11-05T05:24:26.195Z,15.20
2022-11-05T05:25:48.228Z,15.20
2022-11-05T05:27:10.547Z,21.63
2022-11-05T05:28:32.600Z,19.47
2022-11-05T05:29:55.206Z,15.93
2022-11-05T05:31:17.242Z,10.70
2022-11-05T05:32:39.274Z,14.67
2022-11-05T05:34:01.887Z,14.37
2022-11-05T05:35:23.929Z,8.93
2022-11-05T05:36:45.996Z,23.77
2022-11-05T05:38:08.060Z,18.40
2022-11-05T05:39:30.122Z,13.83
2022-11-05T05:40:52.542Z,17.27
2022-11-05T05:42:14.955Z,16.80
2022-11-05T05:43:37.019Z,16.27
2022-11-05T05:44:59.122Z,16.30
2022-11-05T05:46:21.138Z,15.23
2022-11-05T05:47:43.163Z,15.40
2022-11-05T05:49:11.081Z,12.30
2022-11-05T05:50:34.313Z,12.07
2022-11-05T05:51:56.847Z,18.67
2022-11-05T05:53:18.874Z,19.43
2022-11-05T05:54:42.959Z,21.30
2022-11-05T05:56:06.428Z,15.90
2022-11-05T05:57:28.613Z,12.43
2022-11-05T05:58:50.658Z,11.00
2022-11-05T06:00:13.378Z,18.10
2022-11-05T06:01:35.506Z,16.80
2022-11-05T06:02:57.643Z,19.40
2022-11-05T06:04:19.757Z,15.07
2022-11-05T06:05:41.769Z,19.80
2022-11-05T06:07:03.851Z,10.63
2022-11-05T06:08:25.846Z,14.03
2022-11-05T06:09:47.857Z,16.37
2022-11-05T06:11:11.599Z,13.07
2022-11-05T06:12:33.867Z,24.57
2022-11-05T06:13:55.912Z,8.77
2022-11-05T06:15:17.981Z,18.23
2022-11-05T06:16:40.808Z,8.50
2022-11-05T06:18:02.894Z,15.57
2022-11-05T06:19:24.974Z,9.67
2022-11-05T06:20:46.997Z,14.67
2022-11-05T06:22:09.043Z,9.53
2022-11-05T06:23:32.288Z,13.27
2022-11-05T06:24:54.454Z,12.70
2022-11-05T06:26:18.617Z,11.73
2022-11-05T06:27:40.641Z,13.67
2022-11-05T06:29:02.712Z,14.33
2022-11-05T06:30:24.777Z,11.30
2022-11-05T06:31:46.797Z,22.83
2022-11-05T06:33:09.114Z,16.40
2022-11-05T06:34:31.391Z,15.73
2022-11-05T06:35:54.698Z,13.83
2022-11-05T06:37:16.701Z,13.60
2022-11-05T06:38:39.043Z,17.93
2022-11-05T06:40:01.317Z,10.07
2022-11-05T06:41:23.377Z,11.13
2022-11-05T06:42:45.548Z,14.53
2022-11-05T06:44:07.549Z,13.17
2022-11-05T06:45:29.577Z,11.73
2022-11-05T06:46:51.742Z,22.40
2022-11-05T06:48:13.784Z,14.90
2022-11-05T06:49:35.789Z,14.00
2022-11-05T06:50:57.828Z,15.43
2022-11-05T06:52:20.573Z,11.93
2022-11-05T06:53:42.646Z,18.80
2022-11-05T06:55:05.004Z,9.60
2022-11-05T06:56:27.050Z,15.03
2022-11-05T06:57:49.678Z,12.90
2022-11-05T06:59:11.752Z,17.83
2022-11-05T07:00:33.819Z,15.60
2022-11-05T07:01:56.190Z,14.00
2022-11-05T07:03:18.291Z,6.93
2022-11-05T07:04:40.379Z,16.93
2022-11-05T07:06:04.414Z,12.83
2022-11-05T07:07:26.432Z,12.60
2022-11-05T07:08:48.483Z,14.20
2022-11-05T07:10:16.388Z,8.90
2022-11-05T07:11:38.375Z,16.53
2022-11-05T07:13:08.133Z,13.07
2022-11-05T07:14:30.689Z,13.27
2022-11-05T07:15:52.898Z,9.70
2022-11-05T07:17:17.890Z,9.53
2022-11-05T07:18:40.166Z,11.30
2022-11-05T07:20:02.275Z,10.20
2022-11-05T07:21:24.420Z,17.10
2022-11-05T07:22:46.413Z,16.67
2022-11-05T07:24:08.931Z,8.03
2022-11-05T07:25:32.590Z,9.03
2022-11-05T07:26:56.666Z,13.53
2022-11-05T07:28:18.813Z,13.20
2022-11-05T07:29:40.820Z,14.07
2022-11-05T07:31:02.931Z,15.40
2022-11-05T07:32:24.937Z,8.83
2022-11-05T07:33:46.998Z,13.40
2022-11-05T07:35:09.839Z,5.93
2022-11-05T07:36:31.892Z,9.33
2022-11-05T07:37:54.826Z,9.60
2022-11-05T07:39:17.042Z,18.63
2022-11-05T07:40:39.356Z,12.20
2022-11-05T07:42:01.385Z,10.23
2022-11-05T07:43:23.341Z,15.00
2022-11-05T07:44:45.333Z,6.37
2022-11-05T07:46:12.657Z,10.43
2022-11-05T07:47:44.975Z,13.13
2022-11-05T07:49:07.068Z,15.03
2022-11-05T07:50:32.795Z,7.37
2022-11-05T07:51:54.801Z,12.73
2022-11-05T07:53:16.831Z,10.60
2022-11-05T07:54:38.880Z,11.53
2022-11-05T07:56:00.908Z,9.10
2022-11-05T07:57:22.967Z,12.93
2022-11-05T07:58:45.085Z,8.93
2022-11-05T08:00:07.957Z,9.50
2022-11-05T08:01:30.080Z,8.73
2022-11-05T08:03:08.534Z,7.27
2022-11-05T08:04:30.803Z,18.53
2022-11-05T08:05:52.841Z,8.60
2022-11-05T08:07:14.844Z,8.90
2022-11-05T08:08:36.902Z,7.73
2022-11-05T08:09:58.961Z,13.60
2022-11-05T08:11:20.988Z,7.47
2022-11-05T08:12:42.999Z,11.93
2022-11-05T08:14:05.028Z,7.87
2022-11-05T08:15:27.053Z,12.93
2022-11-05T08:16:49.059Z,14.17
2022-11-05T08:18:13.304Z,6.23
2022-11-05T08:19:35.329Z,5.93
2022-11-05T08:21:03.374Z,9.20
2022-11-05T08:22:25.393Z,16.60
2022-11-05T08:23:47.534Z,14.43
2022-11-05T08:25:10.022Z,11.33
2022-11-05T08:26:32.062Z,10.90
2022-11-05T08:27:57.788Z,10.60
2022-11-05T08:29:19.805Z,9.47
2022-11-05T08:30:41.897Z,6.97
2022-11-05T08:32:03.920Z,10.13
2022-11-05T08:33:26.387Z,6.50
2022-11-05T08:34:48.407Z,24.13
2022-11-05T08:36:10.421Z,6.40
2022-11-05T08:37:32.839Z,9.00
2022-11-05T08:38:55.153Z,11.43
2022-11-05T08:40:17.202Z,6.40
2022-11-05T08:41:40.443Z,10.93
2022-11-05T08:43:04.366Z,11.03
2022-11-05T08:44:26.469Z,8.37
2022-11-05T08:45:48.505Z,8.03
2022-11-05T08:47:10.542Z,9.40
2022-11-05T08:48:32.542Z,10.37
2022-11-05T08:49:54.612Z,4.27
2022-11-05T08:51:16.745Z,7.07
2022-11-05T08:52:40.618Z,12.43
2022-11-05T08:54:02.638Z,10.07
2022-11-05T08:55:25.205Z,10.40
2022-11-05T08:56:47.274Z,6.60
2022-11-05T08:58:18.083Z,6.67
2022-11-05T08:59:40.071Z,10.83
2022-11-05T09:01:05.458Z,8.40
2022-11-05T09:02:27.845Z,7.60
2022-11-05T09:03:51.761Z,10.90
2022-11-05T09:05:13.772Z,6.47
2022-11-05T09:06:35.801Z,8.37
2022-11-05T09:08:01.325Z,11.80
2022-11-05T09:09:23.643Z,4.07
2022-11-05T09:10:47.743Z,9.93
2022-11-05T09:12:12.685Z,11.07
2022-11-05T09:13:35.558Z,13.33
2022-11-05T09:14:57.675Z,9.70
2022-11-05T09:16:25.205Z,12.37
2022-11-05T09:17:47.212Z,7.87
2022-11-05T09:19:09.299Z,12.90
2022-11-05T09:20:32.045Z,5.23
2022-11-05T09:21:54.151Z,10.53
2022-11-05T09:23:16.912Z,11.83
2022-11-05T09:24:43.194Z,13.30
2022-11-05T09:26:05.672Z,6.00
2022-11-05T09:27:28.052Z,8.37
2022-11-05T09:28:50.083Z,6.93
2022-11-05T09:30:13.535Z,6.90
2022-11-05T09:31:35.772Z,7.83
2022-11-05T09:32:57.927Z,12.23
2022-11-05T09:34:19.978Z,9.73
2022-11-05T09:35:42.847Z,11.07
2022-11-05T09:37:04.961Z,8.17
2022-11-05T09:38:27.439Z,10.90
2022-11-05T09:39:49.606Z,5.73
2022-11-05T09:41:26.567Z,5.07
2022-11-05T09:42:52.401Z,11.87
2022-11-05T09:44:36.218Z,5.27
2022-11-05T09:46:02.924Z,9.67
2022-11-05T09:47:32.862Z,10.20
2022-11-05T09:49:03.319Z,6.30
2022-11-05T09:50:39.225Z,3.57
2022-11-05T09:52:02.125Z,10.90
2022-11-05T09:53:25.397Z,11.40
2022-11-05T09:54:48.886Z,7.37
2022-11-05T09:56:33.088Z,8.17
2022-11-05T09:58:02.573Z,7.60
2022-11-05T09:59:27.796Z,6.07
2022-11-05T10:00:52.763Z,11.30
2022-11-05T10:02:46.816Z,10.07
2022-11-05T10:04:16.226Z,2.67
2022-11-05T10:05:40.226Z,5.00
2022-11-05T10:07:05.805Z,9.23
2022-11-05T10:08:32.659Z,9.93
2022-11-05T10:10:07.811Z,8.80
2022-11-05T10:11:45.377Z,7.90
2022-11-05T10:13:36.338Z,9.30
2022-11-05T10:15:12.288Z,4.77
2022-11-05T10:16:42.139Z,9.00
2022-11-05T10:18:23.283Z,4.47
2022-11-05T10:19:50.675Z,10.50
2022-11-05T10:21:27.779Z,7.00
2022-11-05T10:23:17.262Z,9.87
2022-11-05T10:24:43.631Z,12.93
2022-11-05T10:26:10.430Z,7.77
2022-11-05T10:27:36.681Z,6.63
2022-11-05T10:28:58.741Z,8.87
2022-11-05T10:30:21.588Z,5.63
2022-11-05T10:31:43.852Z,6.17
2022-11-05T10:33:07.954Z,8.20
2022-11-05T10:34:34.427Z,6.10
2022-11-05T10:36:02.610Z,6.60
2022-11-05T10:37:25.277Z,4.43
2022-11-05T10:38:47.658Z,9.97
2022-11-05T10:40:27.330Z,6.87
2022-11-05T10:42:09.820Z,4.87
2022-11-05T10:43:42.272Z,10.77
2022-11-05T10:45:41.082Z,9.13
2022-11-05T10:47:29.362Z,6.40
2022-11-05T10:49:06.609Z,7.13
2022-11-05T10:50:30.065Z,14.93
2022-11-05T10:51:58.089Z,10.83
2022-11-05T10:53:33.969Z,8.47
2022-11-05T10:54:59.853Z,10.07
2022-11-05T10:56:32.389Z,8.87
2022-11-05T10:57:54.915Z,16.37
2022-11-05T10:59:23.743Z,5.00
2022-11-05T11:01:08.220Z,9.10
2022-11-05T11:02:30.754Z,10.23
2022-11-05T11:04:05.775Z,8.97
2022-11-05T11:05:32.253Z,11.30
2022-11-05T11:06:56.965Z,3.53
2022-11-05T11:08:23.813Z,10.20
2022-11-05T11:09:49.045Z,7.60
2022-11-05T11:11:24.999Z,6.00
2022-11-05T11:12:49.643Z,14.20
2022-11-05T11:14:11.672Z,5.00
2022-11-05T11:15:35.082Z,10.47
2022-11-05T11:17:26.876Z,5.10
2022-11-05T11:18:58.419Z,3.47
2022-11-05T11:20:25.165Z,6.10
2022-11-05T11:22:07.682Z,12.60
2022-11-05T11:23:37.534Z,7.17
2022-11-05T11:24:59.582Z,5.17
2022-11-05T11:26:23.217Z,8.53
2022-11-05T11:27:45.396Z,7.57
2022-11-05T11:29:25.463Z,3.60
2022-11-05T11:31:01.386Z,6.70
2022-11-05T11:32:27.747Z,10.47
2022-11-05T11:34:06.701Z,11.30
2022-11-05T11:35:29.325Z,5.07
2022-11-05T11:36:56.144Z,7.03
2022-11-05T11:38:18.432Z,9.23
2022-11-05T11:39:43.298Z,7.13
2022-11-05T11:41:25.563Z,5.80
2022-11-05T11:42:55.621Z,6.67
2022-11-05T11:44:24.578Z,4.63
2022-11-05T11:45:53.826Z,6.90
2022-11-05T11:47:19.457Z,1.83
2022-11-05T11:48:45.691Z,9.57
2022-11-05T11:50:43.759Z,12.83
2022-11-05T11:52:15.365Z,2.67
2022-11-05T11:53:37.481Z,7.63
2022-11-05T11:55:12.314Z,4.17
2022-11-05T11:56:45.896Z,5.13
2022-11-05T11:58:10.383Z,10.10
2022-11-05T12:00:06.437Z,5.90
2022-11-05T12:01:33.252Z,5.67
2022-11-05T12:03:33.061Z,3.00
2022-11-05T12:05:03.932Z,5.83
2022-11-05T12:06:44.138Z,10.30
2022-11-05T12:08:45.508Z,8.17
2022-11-05T12:10:19.015Z,4.83
2022-11-05T12:12:22.530Z,9.10
2022-11-05T12:13:51.845Z,5.23
2022-11-05T12:15:39.419Z,5.47
2022-11-05T12:17:17.713Z,7.40
2022-11-05T12:18:47.312Z,11.13
2022-11-05T12:20:33.119Z,3.63
2022-11-05T12:22:16.296Z,6.07
2022-11-05T12:24:10.361Z,5.17
2022-11-05T12:26:04.383Z,3.50
2022-11-05T12:27:46.177Z,6.20
2022-11-05T12:29:25.579Z,12.20
2022-11-05T12:31:05.327Z,5.23
2022-11-05T12:33:21.370Z,4.93
2022-11-05T12:35:18.987Z,6.10
2022-11-05T12:37:12.922Z,4.40
2022-11-05T12:39:04.358Z,6.67
2022-11-05T12:40:32.098Z,10.17
2022-11-05T12:42:05.538Z,7.67
2022-11-05T12:43:32.014Z,5.00
2022-11-05T12:45:20.539Z,2.50
2022-11-05T12:47:01.061Z,6.13
2022-11-05T12:48:38.654Z,13.90
2022-11-05T12:50:25.312Z,5.57
2022-11-05T12:51:56.529Z,4.57
2022-11-05T12:53:27.809Z,6.47
2022-11-05T12:55:04.323Z,4.73
2022-11-05T12:56:47.313Z,6.37
2022-11-05T12:58:18.603Z,7.10
2022-11-05T12:59:56.362Z,3.83
2022-11-05T13:01:25.526Z,6.47
2022-11-05T13:03:22.498Z,13.93
2022-11-05T13:04:53.234Z,5.60
2022-11-05T13:06:31.751Z,5.60
2022-11-05T13:07:56.971Z,5.67
2022-11-05T13:09:49.336Z,3.43
2022-11-05T13:11:14.178Z,7.93
2022-11-05T13:12:41.176Z,2.57
2022-11-05T13:14:11.516Z,2.23
2022-11-05T13:15:39.874Z,2.70
2022-11-05T13:17:17.640Z,2.70
2022-11-05T13:18:51.151Z,6.30
2022-11-05T13:20:24.392Z,3.60
2022-11-05T13:21:56.597Z,3.37
2022-11-05T13:23:36.863Z,4.73
2022-11-05T13:25:04.778Z,4.63
2022-11-05T13:26:39.877Z,4.87
2022-11-05T13:28:25.605Z,3.03
2022-11-05T13:29:55.594Z,4.33
2022-11-05T13:31:21.606Z,4.07
2022-11-05T13:32:48.258Z,3.73
2022-11-05T13:34:12.407Z,5.87
2022-11-05T13:35:43.209Z,3.60
2022-11-05T13:37:26.438Z,9.03
2022-11-05T13:38:59.182Z,4.20
2022-11-05T13:40:29.750Z,5.30
2022-11-05T13:42:09.490Z,7.80
2022-11-05T13:43:54.626Z,10.03
2022-11-05T13:45:28.878Z,4.60
2022-11-05T13:47:29.641Z,3.63
2022-11-05T13:49:10.048Z,9.57
2022-11-05T13:50:59.290Z,5.23
2022-11-05T13:52:36.430Z,1.80
2022-11-05T13:54:10.273Z,6.90
2022-11-05T13:56:04.822Z,6.60
2022-11-05T13:57:38.169Z,6.30
2022-11-05T13:59:19.121Z,3.13
2022-11-05T14:01:03.123Z,8.53
2022-11-05T14:02:29.311Z,4.50
2022-11-05T14:03:55.295Z,11.43
2022-11-05T14:05:48.985Z,7.73
2022-11-05T14:07:18.428Z,3.87
2022-11-05T14:08:45.252Z,3.90
2022-11-05T14:10:34.958Z,5.03
2022-11-05T14:11:58.259Z,6.30
2022-11-05T14:13:25.298Z,4.03
2022-11-05T14:14:59.153Z,5.67
2022-11-05T14:16:26.970Z,4.73
2022-11-05T14:18:26.970Z,4.53
2022-11-05T14:20:23.774Z,4.10
2022-11-05T14:21:56.129Z,7.93
2022-11-05T14:23:22.368Z,4.90
2022-11-05T14:24:45.740Z,9.37
2022-11-05T14:26:18.081Z,6.83
2022-11-05T14:27:40.101Z,5.27
2022-11-05T14:29:04.600Z,5.13
2022-11-05T14:30:46.016Z,4.53
2022-11-05T14:32:43.065Z,11.23
2022-11-05T14:34:10.941Z,6.87
2022-11-05T14:35:38.016Z,1.80
2022-11-05T14:37:27.466Z,9.43
2022-11-05T14:38:52.035Z,7.20
2022-11-05T14:40:32.756Z,2.60
2022-11-05T14:41:54.742Z,14.60
2022-11-05T14:43:23.919Z,8.17
2022-11-05T14:45:23.207Z,2.80
2022-11-05T14:46:48.974Z,2.60
2022-11-05T14:48:30.796Z,5.63
2022-11-05T14:50:00.893Z,7.00
2022-11-05T14:51:31.172Z,6.70
2022-11-05T14:52:55.611Z,8.67
2022-11-05T14:54:45.030Z,4.00
2022-11-05T14:56:16.296Z,4.80
2022-11-05T14:57:44.038Z,4.17
2022-11-05T14:59:23.982Z,10.80
2022-11-05T15:00:47.835Z,5.30
2022-11-05T15:02:20.137Z,3.40
2022-11-05T15:03:46.443Z,4.00
2022-11-05T15:05:36.860Z,4.93
2022-11-05T15:07:02.019Z,6.67
2022-11-05T15:08:27.008Z,3.13
2022-11-05T15:09:54.985Z,15.43
2022-11-05T15:11:30.235Z,10.70
2022-11-05T15:12:56.625Z,4.67
2022-11-05T15:14:21.750Z,3.90
2022-11-05T15:15:47.136Z,4.10
2022-11-05T15:17:21.513Z,3.90
2022-11-05T15:18:45.745Z,5.60
2022-11-05T15:20:08.544Z,8.20
2022-11-05T15:21:36.247Z,4.07
2022-11-05T15:23:05.260Z,6.33
2022-11-05T15:24:28.261Z,6.70
2022-11-05T15:26:05.647Z,5.77
2022-11-05T15:27:33.910Z,7.23
2022-11-05T15:28:56.667Z,6.33
2022-11-05T15:30:21.597Z,3.47
2022-11-05T15:31:45.361Z,7.70
2022-11-05T15:33:20.411Z,5.90
2022-11-05T15:34:51.876Z,9.30
2022-11-05T15:36:25.844Z,6.67
2022-11-05T15:37:54.605Z,6.40
2022-11-05T15:39:29.937Z,5.80
2022-11-05T15:41:00.892Z,7.33
2022-11-05T15:42:25.399Z,2.13
2022-11-05T15:43:49.058Z,8.00
2022-11-05T15:45:20.750Z,5.30
2022-11-05T15:46:42.773Z,4.83
2022-11-05T15:48:13.431Z,7.87
2022-11-05T15:49:35.612Z,4.67
2022-11-05T15:50:58.182Z,6.73
2022-11-05T15:52:23.408Z,7.33
2022-11-05T15:54:02.239Z,2.40
2022-11-05T15:55:27.544Z,5.80
2022-11-05T15:56:59.671Z,3.53
2022-11-05T15:58:21.805Z,10.80
2022-11-05T15:59:47.133Z,4.97
2022-11-05T16:01:33.310Z,11.30
2022-11-05T16:03:06.243Z,3.83
2022-11-05T16:04:32.053Z,4.67
2022-11-05T16:05:54.549Z,7.07
2022-11-05T16:07:17.603Z,4.30
2022-11-05T16:08:45.769Z,8.00
2022-11-05T16:10:23.310Z,12.50
2022-11-05T16:11:45.353Z,10.43
2022-11-05T16:13:36.773Z,8.57
2022-11-05T16:15:18.328Z,3.50
2022-11-05T16:16:40.380Z,3.90
2022-11-05T16:18:02.390Z,5.57
2022-11-05T16:19:45.389Z,6.30
2022-11-05T16:21:18.221Z,4.40
2022-11-05T16:22:48.663Z,9.60
2022-11-05T16:24:29.052Z,9.30
2022-11-05T16:25:51.722Z,10.53
2022-11-05T16:27:22.882Z,4.27
2022-11-05T16:28:50.531Z,7.93
2022-11-05T16:30:19.886Z,4.77
2022-11-05T16:31:48.535Z,4.23
2022-11-05T16:33:13.997Z,10.23
2022-11-05T16:34:39.148Z,6.50
2022-11-05T16:36:01.274Z,4.83
2022-11-05T16:37:25.695Z,10.40
2022-11-05T16:38:48.032Z,2.60
2022-11-05T16:40:18.022Z,3.93
2022-11-05T16:41:43.660Z,2.60
2022-11-05T16:43:20.603Z,8.50
2022-11-05T16:44:42.708Z,7.10
2022-11-05T16:46:04.982Z,5.30
2022-11-05T16:47:27.039Z,7.23
2022-11-05T16:48:49.267Z,4.33
2022-11-05T16:50:25.839Z,9.93
2022-11-05T16:51:47.898Z,3.40
2022-11-05T16:53:10.243Z,4.80
2022-11-05T16:54:32.358Z,5.13
2022-11-05T16:55:54.372Z,3.30
2022-11-05T16:57:31.015Z,3.37
2022-11-05T16:58:53.179Z,7.70
2022-11-05T17:00:17.553Z,3.90
2022-11-05T17:01:42.033Z,4.13
2022-11-05T17:03:04.263Z,8.63
2022-11-05T17:04:26.305Z,4.73
2022-11-05T17:05:48.416Z,5.30
2022-11-05T17:07:10.426Z,5.90
2022-11-05T17:08:32.427Z,7.77
2022-11-05T17:09:55.997Z,3.70
2022-11-05T17:11:20.223Z,4.47
2022-11-05T17:12:43.309Z,6.43
2022-11-05T17:14:05.458Z,8.83
2022-11-05T17:15:31.087Z,2.80
2022-11-05T17:16:53.179Z,4.57
2022-11-05T17:18:18.911Z,3.80
2022-11-05T17:19:42.584Z,4.70
2022-11-05T17:21:04.906Z,6.40
2022-11-05T17:22:26.942Z,9.93
2022-11-05T17:23:48.996Z,5.70
2022-11-05T17:25:11.013Z,7.77
2022-11-05T17:26:34.691Z,6.03
2022-11-05T17:27:57.459Z,4.83
2022-11-05T17:29:19.543Z,3.27
2022-11-05T17:30:42.314Z,8.50
2022-11-05T17:32:05.952Z,4.13
2022-11-05T17:33:28.275Z,4.80
2022-11-05T17:34:50.310Z,4.00
2022-11-05T17:36:14.718Z,4.40
2022-11-05T17:37:36.845Z,5.70
2022-11-05T17:38:59.011Z,4.10
2022-11-05T17:40:25.251Z,5.27
2022-11-05T17:41:47.909Z,4.07
2022-11-05T17:43:10.557Z,4.10
2022-11-05T17:44:32.932Z,6.93
2022-11-05T17:45:58.655Z,8.43
2022-11-05T17:47:24.000Z,2.70
2022-11-05T17:48:46.435Z,4.90
2022-11-05T17:50:11.396Z,5.30
2022-11-05T17:51:34.592Z,10.47
2022-11-05T17:52:56.925Z,6.70
2022-11-05T17:54:19.039Z,10.63
2022-11-05T17:55:42.751Z,5.50
2022-11-05T17:57:05.422Z,5.90
2022-11-05T17:58:27.482Z,6.30
2022-11-05T17:59:49.554Z,5.50
2022-11-05T18:01:28.961Z,5.67
2022-11-05T18:02:53.394Z,11.27
2022-11-05T18:04:15.546Z,2.70
2022-11-05T18:05:38.503Z,7.60
2022-11-05T18:07:00.604Z,3.63
2022-11-05T18:08:23.000Z,4.93
2022-11-05T18:09:45.120Z,6.67
2022-11-05T18:11:07.164Z,3.87
2022-11-05T18:12:29.222Z,4.60
2022-11-05T18:13:51.236Z,3.53
2022-11-05T18:15:14.295Z,4.33
2022-11-05T18:16:36.764Z,6.33
2022-11-05T18:17:58.857Z,4.57
2022-11-05T18:19:21.349Z,8.50
2022-11-05T18:20:43.664Z,3.07
2022-11-05T18:22:06.146Z,4.07
2022-11-05T18:23:28.327Z,3.50
2022-11-05T18:24:50.438Z,3.20
2022-11-05T18:26:14.919Z,8.63
2022-11-05T18:27:37.318Z,6.17
2022-11-05T18:29:04.447Z,3.80
2022-11-05T18:30:26.557Z,3.23
2022-11-05T18:31:48.700Z,6.90
2022-11-05T18:33:11.106Z,4.47
2022-11-05T18:34:33.430Z,8.80
2022-11-05T18:35:55.648Z,7.33
2022-11-05T18:37:17.912Z,5.20
2022-11-05T18:38:39.927Z,13.47
2022-11-05T18:40:01.988Z,12.03
2022-11-05T18:41:24.444Z,4.73
2022-11-05T18:42:46.531Z,11.40
2022-11-05T18:44:09.692Z,9.20
2022-11-05T18:45:33.351Z,13.77
2022-11-05T18:46:58.443Z,3.20
2022-11-05T18:48:20.838Z,6.87
2022-11-05T18:49:42.949Z,7.83
2022-11-05T18:51:15.458Z,3.53
2022-11-05T18:52:37.801Z,8.20
2022-11-05T18:54:00.632Z,8.13
2022-11-05T18:55:23.602Z,5.60
2022-11-05T18:56:46.081Z,8.03
2022-11-05T18:58:08.837Z,9.57
2022-11-05T18:59:37.731Z,7.73
2022-11-05T19:01:05.514Z,7.00
2022-11-05T19:02:28.758Z,7.90
2022-11-05T19:03:54.345Z,5.67
2022-11-05T19:05:32.198Z,9.43
2022-11-05T19:06:54.379Z,3.73
2022-11-05T19:08:16.510Z,11.53
2022-11-05T19:09:39.448Z,3.60
2022-11-05T19:11:10.167Z,4.73
2022-11-05T19:12:32.250Z,4.27
2022-11-05T19:13:54.728Z,6.00
2022-11-05T19:15:17.119Z,4.20
2022-11-05T19:16:39.174Z,4.60
2022-11-05T19:18:01.222Z,5.67